sensor_id;sensor_type;location;lat;lon;timestamp;temperature;humidity
49549;DHT22;35450;44.518;7.466;2023-04-03T00:02:02;13.60;65.50
49549;DHT22;35450;44.518;7.466;2023-04-03T00:05:07;13.60;64.90
49549;DHT22;35450;44.518;7.466;2023-04-03T00:08:11;13.60;63.70
49549;DHT22;35450;44.518;7.466;2023-04-03T00:11:15;13.70;63.80
49549;DHT22;35450;44.518;7.466;2023-04-03T00:14:19;13.70;64.00
49549;DHT22;35450;44.518;7.466;2023-04-03T00:17:23;13.60;64.10
49549;DHT22;35450;44.518;7.466;2023-04-03T00:20:27;13.50;65.40
49549;DHT22;35450;44.518;7.466;2023-04-03T00:23:31;13.40;65.70
49549;DHT22;35450;44.518;7.466;2023-04-03T00:26:35;13.50;65.80
49549;DHT22;35450;44.518;7.466;2023-04-03T00:29:39;13.40;65.10
49549;DHT22;35450;44.518;7.466;2023-04-03T00:32:43;13.30;65.00
49549;DHT22;35450;44.518;7.466;2023-04-03T00:35:48;13.20;65.20
49549;DHT22;35450;44.518;7.466;2023-04-03T00:38:53;13.30;66.10
49549;DHT22;35450;44.518;7.466;2023-04-03T00:41:57;13.30;65.90
49549;DHT22;35450;44.518;7.466;2023-04-03T00:48:07;13.30;66.40
49549;DHT22;35450;44.518;7.466;2023-04-03T00:51:15;13.30;66.20
49549;DHT22;35450;44.518;7.466;2023-04-03T00:54:20;13.30;66.40
49549;DHT22;35450;44.518;7.466;2023-04-03T00:57:24;13.20;65.80
49549;DHT22;35450;44.518;7.466;2023-04-03T01:00:28;13.20;65.40
49549;DHT22;35450;44.518;7.466;2023-04-03T01:03:33;13.20;65.10
49549;DHT22;35450;44.518;7.466;2023-04-03T01:06:39;13.10;64.80
49549;DHT22;35450;44.518;7.466;2023-04-03T01:09:47;13.20;64.50
49549;DHT22;35450;44.518;7.466;2023-04-03T01:12:51;12.90;65.20
49549;DHT22;35450;44.518;7.466;2023-04-03T01:15:56;12.80;65.60
49549;DHT22;35450;44.518;7.466;2023-04-03T01:19:01;12.90;65.20
49549;DHT22;35450;44.518;7.466;2023-04-03T01:22:26;12.90;65.50
49549;DHT22;35450;44.518;7.466;2023-04-03T01:25:36;12.90;65.40
49549;DHT22;35450;44.518;7.466;2023-04-03T01:28:41;12.80;65.70
49549;DHT22;35450;44.518;7.466;2023-04-03T01:31:56;12.90;65.80
49549;DHT22;35450;44.518;7.466;2023-04-03T01:35:01;12.90;66.00
49549;DHT22;35450;44.518;7.466;2023-04-03T01:38:05;12.90;66.10
49549;DHT22;35450;44.518;7.466;2023-04-03T01:41:09;12.80;66.10
49549;DHT22;35450;44.518;7.466;2023-04-03T01:44:14;12.70;66.30
49549;DHT22;35450;44.518;7.466;2023-04-03T01:47:18;12.60;64.20
49549;DHT22;35450;44.518;7.466;2023-04-03T01:50:23;12.50;63.80
49549;DHT22;35450;44.518;7.466;2023-04-03T01:53:26;12.60;63.70
49549;DHT22;35450;44.518;7.466;2023-04-03T01:56:31;12.50;63.60
49549;DHT22;35450;44.518;7.466;2023-04-03T01:59:35;12.50;63.60
49549;DHT22;35450;44.518;7.466;2023-04-03T02:02:39;12.60;63.10
49549;DHT22;35450;44.518;7.466;2023-04-03T02:05:43;12.60;63.30
49549;DHT22;35450;44.518;7.466;2023-04-03T02:08:48;12.50;63.50
49549;DHT22;35450;44.518;7.466;2023-04-03T02:11:52;12.50;64.00
49549;DHT22;35450;44.518;7.466;2023-04-03T02:14:57;12.50;64.30
49549;DHT22;35450;44.518;7.466;2023-04-03T02:18:00;12.40;64.80
49549;DHT22;35450;44.518;7.466;2023-04-03T02:21:04;12.40;64.90
49549;DHT22;35450;44.518;7.466;2023-04-03T02:24:09;12.40;64.70
49549;DHT22;35450;44.518;7.466;2023-04-03T02:27:13;12.30;64.40
49549;DHT22;35450;44.518;7.466;2023-04-03T02:30:17;12.40;64.10
49549;DHT22;35450;44.518;7.466;2023-04-03T02:33:20;12.30;63.80
49549;DHT22;35450;44.518;7.466;2023-04-03T02:36:24;12.30;64.60
49549;DHT22;35450;44.518;7.466;2023-04-03T02:39:33;12.20;64.70
49549;DHT22;35450;44.518;7.466;2023-04-03T02:42:38;12.30;64.60
49549;DHT22;35450;44.518;7.466;2023-04-03T02:45:42;12.30;63.80
49549;DHT22;35450;44.518;7.466;2023-04-03T02:48:46;12.20;64.10
49549;DHT22;35450;44.518;7.466;2023-04-03T02:51:50;12.20;63.60
49549;DHT22;35450;44.518;7.466;2023-04-03T02:54:54;12.20;63.60
49549;DHT22;35450;44.518;7.466;2023-04-03T02:57:59;12.20;63.70
49549;DHT22;35450;44.518;7.466;2023-04-03T03:01:04;12.20;63.60
49549;DHT22;35450;44.518;7.466;2023-04-03T03:04:08;12.20;63.60
49549;DHT22;35450;44.518;7.466;2023-04-03T03:07:12;12.20;63.80
49549;DHT22;35450;44.518;7.466;2023-04-03T03:10:16;12.10;63.40
49549;DHT22;35450;44.518;7.466;2023-04-03T03:13:20;12.10;63.70
49549;DHT22;35450;44.518;7.466;2023-04-03T03:16:25;12.20;63.50
49549;DHT22;35450;44.518;7.466;2023-04-03T03:19:29;12.30;63.50
49549;DHT22;35450;44.518;7.466;2023-04-03T03:22:34;12.30;63.80
49549;DHT22;35450;44.518;7.466;2023-04-03T03:25:41;12.30;65.20
49549;DHT22;35450;44.518;7.466;2023-04-03T03:28:45;12.20;65.50
49549;DHT22;35450;44.518;7.466;2023-04-03T03:31:50;12.10;65.80
49549;DHT22;35450;44.518;7.466;2023-04-03T03:34:54;11.90;65.70
49549;DHT22;35450;44.518;7.466;2023-04-03T03:37:58;11.90;66.00
49549;DHT22;35450;44.518;7.466;2023-04-03T03:41:02;11.90;65.70
49549;DHT22;35450;44.518;7.466;2023-04-03T03:44:07;12.00;66.00
49549;DHT22;35450;44.518;7.466;2023-04-03T03:47:11;11.80;66.20
49549;DHT22;35450;44.518;7.466;2023-04-03T03:50:16;11.80;65.70
49549;DHT22;35450;44.518;7.466;2023-04-03T03:53:21;11.90;65.70
49549;DHT22;35450;44.518;7.466;2023-04-03T03:56:27;11.80;65.90
49549;DHT22;35450;44.518;7.466;2023-04-03T03:59:31;11.80;66.10
49549;DHT22;35450;44.518;7.466;2023-04-03T04:02:35;11.90;65.60
49549;DHT22;35450;44.518;7.466;2023-04-03T04:05:39;11.90;65.50
49549;DHT22;35450;44.518;7.466;2023-04-03T04:08:43;11.90;65.20
49549;DHT22;35450;44.518;7.466;2023-04-03T04:11:49;11.90;65.60
49549;DHT22;35450;44.518;7.466;2023-04-03T04:14:53;11.90;65.40
49549;DHT22;35450;44.518;7.466;2023-04-03T04:17:57;11.90;65.60
49549;DHT22;35450;44.518;7.466;2023-04-03T04:21:02;11.80;65.00
49549;DHT22;35450;44.518;7.466;2023-04-03T04:24:07;11.80;64.80
49549;DHT22;35450;44.518;7.466;2023-04-03T04:27:12;11.80;64.60
49549;DHT22;35450;44.518;7.466;2023-04-03T04:30:16;11.90;64.20
49549;DHT22;35450;44.518;7.466;2023-04-03T04:33:22;11.90;64.10
49549;DHT22;35450;44.518;7.466;2023-04-03T04:36:26;11.80;64.20
49549;DHT22;35450;44.518;7.466;2023-04-03T04:39:31;12.00;63.80
49549;DHT22;35450;44.518;7.466;2023-04-03T04:42:35;12.00;63.80
49549;DHT22;35450;44.518;7.466;2023-04-03T04:45:40;12.00;63.10
49549;DHT22;35450;44.518;7.466;2023-04-03T04:48:44;12.00;64.00
49549;DHT22;35450;44.518;7.466;2023-04-03T04:51:49;12.00;64.00
49549;DHT22;35450;44.518;7.466;2023-04-03T04:54:55;12.00;62.90
49549;DHT22;35450;44.518;7.466;2023-04-03T04:57:59;12.00;61.60
49549;DHT22;35450;44.518;7.466;2023-04-03T05:01:06;11.90;62.10
49549;DHT22;35450;44.518;7.466;2023-04-03T05:04:14;12.00;62.50
49549;DHT22;35450;44.518;7.466;2023-04-03T05:07:19;12.00;62.20
49549;DHT22;35450;44.518;7.466;2023-04-03T05:10:23;12.10;61.90
49549;DHT22;35450;44.518;7.466;2023-04-03T05:13:27;12.00;61.10
49549;DHT22;35450;44.518;7.466;2023-04-03T05:16:33;12.00;60.70
49549;DHT22;35450;44.518;7.466;2023-04-03T05:19:38;12.10;59.80
49549;DHT22;35450;44.518;7.466;2023-04-03T05:22:43;12.20;59.70
49549;DHT22;35450;44.518;7.466;2023-04-03T05:25:47;12.00;60.80
49549;DHT22;35450;44.518;7.466;2023-04-03T05:28:53;12.00;61.30
49549;DHT22;35450;44.518;7.466;2023-04-03T05:31:58;12.10;61.70
49549;DHT22;35450;44.518;7.466;2023-04-03T05:35:03;12.00;62.30
49549;DHT22;35450;44.518;7.466;2023-04-03T05:38:07;12.10;61.30
49549;DHT22;35450;44.518;7.466;2023-04-03T05:41:12;12.10;61.00
49549;DHT22;35450;44.518;7.466;2023-04-03T05:44:17;12.10;60.20
49549;DHT22;35450;44.518;7.466;2023-04-03T05:47:23;12.30;60.90
49549;DHT22;35450;44.518;7.466;2023-04-03T05:50:27;12.30;61.30
49549;DHT22;35450;44.518;7.466;2023-04-03T05:53:33;12.30;61.60
49549;DHT22;35450;44.518;7.466;2023-04-03T05:56:40;12.20;60.80
49549;DHT22;35450;44.518;7.466;2023-04-03T05:59:45;12.20;60.00
49549;DHT22;35450;44.518;7.466;2023-04-03T06:02:51;12.30;59.00
49549;DHT22;35450;44.518;7.466;2023-04-03T06:06:00;12.40;58.70
49549;DHT22;35450;44.518;7.466;2023-04-03T06:09:05;12.50;58.50
49549;DHT22;35450;44.518;7.466;2023-04-03T06:12:10;12.60;58.30
49549;DHT22;35450;44.518;7.466;2023-04-03T06:15:15;12.70;58.00
49549;DHT22;35450;44.518;7.466;2023-04-03T06:18:20;12.80;57.50
49549;DHT22;35450;44.518;7.466;2023-04-03T06:21:24;12.90;57.30
49549;DHT22;35450;44.518;7.466;2023-04-03T06:24:29;13.00;57.50
49549;DHT22;35450;44.518;7.466;2023-04-03T06:27:35;13.00;57.20
49549;DHT22;35450;44.518;7.466;2023-04-03T06:30:39;13.10;58.70
49549;DHT22;35450;44.518;7.466;2023-04-03T06:33:43;13.10;59.70
49549;DHT22;35450;44.518;7.466;2023-04-03T06:36:47;13.10;60.10
49549;DHT22;35450;44.518;7.466;2023-04-03T06:39:52;13.10;59.90
49549;DHT22;35450;44.518;7.466;2023-04-03T06:42:56;13.20;59.80
49549;DHT22;35450;44.518;7.466;2023-04-03T06:46:00;13.30;59.90
49549;DHT22;35450;44.518;7.466;2023-04-03T06:49:04;13.30;60.90
49549;DHT22;35450;44.518;7.466;2023-04-03T06:52:11;13.30;59.90
49549;DHT22;35450;44.518;7.466;2023-04-03T06:55:18;13.40;59.60
49549;DHT22;35450;44.518;7.466;2023-04-03T06:58:22;13.50;60.10
49549;DHT22;35450;44.518;7.466;2023-04-03T07:01:27;13.60;58.40
49549;DHT22;35450;44.518;7.466;2023-04-03T07:04:32;13.60;55.20
49549;DHT22;35450;44.518;7.466;2023-04-03T07:07:36;13.70;55.30
49549;DHT22;35450;44.518;7.466;2023-04-03T07:10:41;13.70;55.50
49549;DHT22;35450;44.518;7.466;2023-04-03T07:13:45;13.80;55.00
49549;DHT22;35450;44.518;7.466;2023-04-03T07:16:49;13.80;55.00
49549;DHT22;35450;44.518;7.466;2023-04-03T07:19:53;13.90;54.40
49549;DHT22;35450;44.518;7.466;2023-04-03T07:22:57;13.90;53.70
49549;DHT22;35450;44.518;7.466;2023-04-03T07:26:01;13.90;52.10
49549;DHT22;35450;44.518;7.466;2023-04-03T07:29:05;14.00;53.10
49549;DHT22;35450;44.518;7.466;2023-04-03T07:32:10;14.00;53.10
49549;DHT22;35450;44.518;7.466;2023-04-03T07:35:15;14.10;53.70
49549;DHT22;35450;44.518;7.466;2023-04-03T07:38:20;14.10;53.60
49549;DHT22;35450;44.518;7.466;2023-04-03T07:41:24;14.20;54.10
49549;DHT22;35450;44.518;7.466;2023-04-03T07:44:28;14.30;54.30
49549;DHT22;35450;44.518;7.466;2023-04-03T07:47:33;14.30;55.70
49549;DHT22;35450;44.518;7.466;2023-04-03T07:50:37;14.30;55.50
49549;DHT22;35450;44.518;7.466;2023-04-03T07:53:43;14.30;54.80
49549;DHT22;35450;44.518;7.466;2023-04-03T07:56:48;14.30;53.20
49549;DHT22;35450;44.518;7.466;2023-04-03T07:59:51;14.30;52.40
49549;DHT22;35450;44.518;7.466;2023-04-03T08:02:55;14.30;51.60
49549;DHT22;35450;44.518;7.466;2023-04-03T08:06:05;14.40;51.20
49549;DHT22;35450;44.518;7.466;2023-04-03T08:09:09;14.40;51.10
49549;DHT22;35450;44.518;7.466;2023-04-03T08:12:13;14.50;49.90
49549;DHT22;35450;44.518;7.466;2023-04-03T08:15:18;14.60;48.40
49549;DHT22;35450;44.518;7.466;2023-04-03T08:18:23;14.60;47.30
49549;DHT22;35450;44.518;7.466;2023-04-03T08:21:28;14.70;47.90
49549;DHT22;35450;44.518;7.466;2023-04-03T08:24:33;14.70;48.00
49549;DHT22;35450;44.518;7.466;2023-04-03T08:27:37;14.70;48.20
49549;DHT22;35450;44.518;7.466;2023-04-03T08:30:42;14.70;48.50
49549;DHT22;35450;44.518;7.466;2023-04-03T08:33:48;14.70;48.00
49549;DHT22;35450;44.518;7.466;2023-04-03T08:36:52;14.70;48.30
49549;DHT22;35450;44.518;7.466;2023-04-03T08:39:56;14.80;48.50
49549;DHT22;35450;44.518;7.466;2023-04-03T08:46:47;14.90;47.80
49549;DHT22;35450;44.518;7.466;2023-04-03T08:49:56;14.80;48.40
49549;DHT22;35450;44.518;7.466;2023-04-03T08:53:02;14.90;48.30
49549;DHT22;35450;44.518;7.466;2023-04-03T08:56:10;15.00;48.90
49549;DHT22;35450;44.518;7.466;2023-04-03T08:59:24;15.00;48.80
49549;DHT22;35450;44.518;7.466;2023-04-03T09:02:38;15.10;48.40
49549;DHT22;35450;44.518;7.466;2023-04-03T09:12:33;15.10;49.10
49549;DHT22;35450;44.518;7.466;2023-04-03T09:15:38;15.20;50.00
49549;DHT22;35450;44.518;7.466;2023-04-03T09:18:45;15.20;47.20
49549;DHT22;35450;44.518;7.466;2023-04-03T09:21:52;15.20;47.30
49549;DHT22;35450;44.518;7.466;2023-04-03T09:25:10;15.20;48.10
49549;DHT22;35450;44.518;7.466;2023-04-03T09:28:15;15.20;49.10
49549;DHT22;35450;44.518;7.466;2023-04-03T09:31:25;15.20;48.00
49549;DHT22;35450;44.518;7.466;2023-04-03T09:34:32;15.20;46.90
49549;DHT22;35450;44.518;7.466;2023-04-03T09:37:42;15.30;47.30
49549;DHT22;35450;44.518;7.466;2023-04-03T09:41:03;15.30;46.90
49549;DHT22;35450;44.518;7.466;2023-04-03T09:44:23;15.30;47.20
49549;DHT22;35450;44.518;7.466;2023-04-03T09:47:35;15.30;47.30
49549;DHT22;35450;44.518;7.466;2023-04-03T09:54:00;15.40;47.60
49549;DHT22;35450;44.518;7.466;2023-04-03T09:57:32;15.50;47.50
49549;DHT22;35450;44.518;7.466;2023-04-03T10:00:37;15.40;49.10
49549;DHT22;35450;44.518;7.466;2023-04-03T10:03:42;15.50;50.20
49549;DHT22;35450;44.518;7.466;2023-04-03T10:06:52;15.50;49.60
49549;DHT22;35450;44.518;7.466;2023-04-03T10:09:59;15.60;48.00
49549;DHT22;35450;44.518;7.466;2023-04-03T10:16:21;15.60;48.70
49549;DHT22;35450;44.518;7.466;2023-04-03T10:22:46;15.60;47.80
49549;DHT22;35450;44.518;7.466;2023-04-03T10:42:55;15.90;47.70
49549;DHT22;35450;44.518;7.466;2023-04-03T10:56:03;15.90;47.70
49549;DHT22;35450;44.518;7.466;2023-04-03T11:05:52;15.80;48.30
49549;DHT22;35450;44.518;7.466;2023-04-03T11:09:01;15.90;49.30
49549;DHT22;35450;44.518;7.466;2023-04-03T11:12:28;15.90;48.80
49549;DHT22;35450;44.518;7.466;2023-04-03T11:15:34;15.90;48.70
49549;DHT22;35450;44.518;7.466;2023-04-03T11:18:54;16.00;49.70
49549;DHT22;35450;44.518;7.466;2023-04-03T11:25:23;16.10;48.60
49549;DHT22;35450;44.518;7.466;2023-04-03T11:28:27;16.10;48.20
49549;DHT22;35450;44.518;7.466;2023-04-03T11:35:02;16.20;48.90
49549;DHT22;35450;44.518;7.466;2023-04-03T11:38:17;16.10;48.80
49549;DHT22;35450;44.518;7.466;2023-04-03T11:41:29;16.20;49.00
49549;DHT22;35450;44.518;7.466;2023-04-03T11:44:36;16.20;48.60
49549;DHT22;35450;44.518;7.466;2023-04-03T11:47:47;16.30;48.20
49549;DHT22;35450;44.518;7.466;2023-04-03T11:50:52;16.30;48.10
49549;DHT22;35450;44.518;7.466;2023-04-03T11:54:35;16.30;48.50
49549;DHT22;35450;44.518;7.466;2023-04-03T12:04:09;16.40;47.80
49549;DHT22;35450;44.518;7.466;2023-04-03T12:07:18;16.30;46.70
49549;DHT22;35450;44.518;7.466;2023-04-03T12:10:22;16.30;47.00
49549;DHT22;35450;44.518;7.466;2023-04-03T12:13:26;16.40;47.80
49549;DHT22;35450;44.518;7.466;2023-04-03T12:16:44;16.40;47.50
49549;DHT22;35450;44.518;7.466;2023-04-03T12:19:49;16.50;47.00
49549;DHT22;35450;44.518;7.466;2023-04-03T12:23:23;16.50;46.70
49549;DHT22;35450;44.518;7.466;2023-04-03T12:33:20;16.50;47.70
49549;DHT22;35450;44.518;7.466;2023-04-03T12:43:35;16.60;46.80
49549;DHT22;35450;44.518;7.466;2023-04-03T12:46:52;16.50;46.80
49549;DHT22;35450;44.518;7.466;2023-04-03T12:49:56;16.50;47.70
49549;DHT22;35450;44.518;7.466;2023-04-03T12:53:11;16.60;47.20
49549;DHT22;35450;44.518;7.466;2023-04-03T12:56:28;16.60;47.40
49549;DHT22;35450;44.518;7.466;2023-04-03T12:59:33;16.60;47.30
49549;DHT22;35450;44.518;7.466;2023-04-03T13:02:37;16.60;47.50
49549;DHT22;35450;44.518;7.466;2023-04-03T13:05:44;16.60;47.50
49549;DHT22;35450;44.518;7.466;2023-04-03T13:08:59;16.70;47.60
49549;DHT22;35450;44.518;7.466;2023-04-03T13:12:13;16.70;47.90
49549;DHT22;35450;44.518;7.466;2023-04-03T13:15:27;16.80;47.20
49549;DHT22;35450;44.518;7.466;2023-04-03T13:18:33;16.80;47.60
49549;DHT22;35450;44.518;7.466;2023-04-03T13:21:38;16.90;48.10
49549;DHT22;35450;44.518;7.466;2023-04-03T13:24:51;16.90;47.40
49549;DHT22;35450;44.518;7.466;2023-04-03T13:27:56;16.90;46.70
49549;DHT22;35450;44.518;7.466;2023-04-03T13:31:46;16.90;47.10
49549;DHT22;35450;44.518;7.466;2023-04-03T13:34:40;16.90;46.40
49549;DHT22;35450;44.518;7.466;2023-04-03T13:41:41;17.00;46.20
49549;DHT22;35450;44.518;7.466;2023-04-03T13:44:45;17.00;45.90
49549;DHT22;35450;44.518;7.466;2023-04-03T13:47:52;17.10;46.10
49549;DHT22;35450;44.518;7.466;2023-04-03T13:51:16;17.10;46.30
49549;DHT22;35450;44.518;7.466;2023-04-03T13:54:33;17.20;45.70
49549;DHT22;35450;44.518;7.466;2023-04-03T13:57:53;17.20;46.40
49549;DHT22;35450;44.518;7.466;2023-04-03T14:01:18;17.30;45.90
49549;DHT22;35450;44.518;7.466;2023-04-03T14:04:25;17.30;45.40
49549;DHT22;35450;44.518;7.466;2023-04-03T14:07:30;17.30;45.80
49549;DHT22;35450;44.518;7.466;2023-04-03T14:10:35;17.30;45.00
49549;DHT22;35450;44.518;7.466;2023-04-03T14:13:40;17.20;46.50
49549;DHT22;35450;44.518;7.466;2023-04-03T14:16:49;17.30;46.30
49549;DHT22;35450;44.518;7.466;2023-04-03T14:19:54;17.30;45.60
49549;DHT22;35450;44.518;7.466;2023-04-03T14:23:00;17.30;45.30
49549;DHT22;35450;44.518;7.466;2023-04-03T14:26:08;17.40;44.50
49549;DHT22;35450;44.518;7.466;2023-04-03T14:29:14;17.40;45.30
49549;DHT22;35450;44.518;7.466;2023-04-03T14:32:20;17.50;44.50
49549;DHT22;35450;44.518;7.466;2023-04-03T14:35:25;17.60;43.10
49549;DHT22;35450;44.518;7.466;2023-04-03T14:38:30;17.50;43.10
49549;DHT22;35450;44.518;7.466;2023-04-03T14:41:35;17.40;42.40
49549;DHT22;35450;44.518;7.466;2023-04-03T14:44:39;17.40;43.80
49549;DHT22;35450;44.518;7.466;2023-04-03T14:47:54;17.40;42.90
49549;DHT22;35450;44.518;7.466;2023-04-03T14:50:59;17.30;43.10
49549;DHT22;35450;44.518;7.466;2023-04-03T14:54:05;17.30;43.40
49549;DHT22;35450;44.518;7.466;2023-04-03T14:57:15;17.40;42.30
49549;DHT22;35450;44.518;7.466;2023-04-03T15:00:21;17.50;42.60
49549;DHT22;35450;44.518;7.466;2023-04-03T15:03:25;17.50;43.90
49549;DHT22;35450;44.518;7.466;2023-04-03T15:06:30;17.50;42.10
49549;DHT22;35450;44.518;7.466;2023-04-03T15:09:34;17.70;41.10
49549;DHT22;35450;44.518;7.466;2023-04-03T15:12:39;17.70;40.60
49549;DHT22;35450;44.518;7.466;2023-04-03T15:15:43;17.90;40.40
49549;DHT22;35450;44.518;7.466;2023-04-03T15:18:48;18.10;39.50
49549;DHT22;35450;44.518;7.466;2023-04-03T15:21:52;18.20;40.50
49549;DHT22;35450;44.518;7.466;2023-04-03T15:24:56;18.30;40.70
49549;DHT22;35450;44.518;7.466;2023-04-03T15:28:00;18.40;39.80
49549;DHT22;35450;44.518;7.466;2023-04-03T15:31:05;18.40;39.90
49549;DHT22;35450;44.518;7.466;2023-04-03T15:34:09;18.30;38.60
49549;DHT22;35450;44.518;7.466;2023-04-03T15:37:13;18.40;39.70
49549;DHT22;35450;44.518;7.466;2023-04-03T15:40:17;18.60;38.40
49549;DHT22;35450;44.518;7.466;2023-04-03T15:43:21;18.70;39.00
49549;DHT22;35450;44.518;7.466;2023-04-03T15:46:25;18.80;38.90
49549;DHT22;35450;44.518;7.466;2023-04-03T15:49:30;18.80;39.00
49549;DHT22;35450;44.518;7.466;2023-04-03T15:52:36;18.80;39.30
49549;DHT22;35450;44.518;7.466;2023-04-03T15:55:41;18.90;39.60
49549;DHT22;35450;44.518;7.466;2023-04-03T15:58:44;19.00;39.30
49549;DHT22;35450;44.518;7.466;2023-04-03T16:01:50;19.00;40.20
49549;DHT22;35450;44.518;7.466;2023-04-03T16:04:55;19.30;39.50
49549;DHT22;35450;44.518;7.466;2023-04-03T16:08:00;19.70;39.50
49549;DHT22;35450;44.518;7.466;2023-04-03T16:11:04;20.10;39.30
49549;DHT22;35450;44.518;7.466;2023-04-03T16:14:08;20.20;38.40
49549;DHT22;35450;44.518;7.466;2023-04-03T16:17:12;20.20;38.90
49549;DHT22;35450;44.518;7.466;2023-04-03T16:20:17;19.90;39.40
49549;DHT22;35450;44.518;7.466;2023-04-03T16:23:23;19.50;39.00
49549;DHT22;35450;44.518;7.466;2023-04-03T16:26:26;19.20;40.40
49549;DHT22;35450;44.518;7.466;2023-04-03T16:29:31;19.00;39.90
49549;DHT22;35450;44.518;7.466;2023-04-03T16:32:35;18.70;41.00
49549;DHT22;35450;44.518;7.466;2023-04-03T16:35:40;18.60;41.60
49549;DHT22;35450;44.518;7.466;2023-04-03T16:38:45;18.40;41.60
49549;DHT22;35450;44.518;7.466;2023-04-03T16:41:49;18.30;42.30
49549;DHT22;35450;44.518;7.466;2023-04-03T16:44:53;18.20;41.70
49549;DHT22;35450;44.518;7.466;2023-04-03T16:47:57;18.10;41.80
49549;DHT22;35450;44.518;7.466;2023-04-03T16:51:01;18.10;42.00
49549;DHT22;35450;44.518;7.466;2023-04-03T16:54:05;17.90;42.40
49549;DHT22;35450;44.518;7.466;2023-04-03T16:57:10;17.90;43.00
49549;DHT22;35450;44.518;7.466;2023-04-03T17:00:14;17.70;44.80
49549;DHT22;35450;44.518;7.466;2023-04-03T17:03:19;17.60;44.20
49549;DHT22;35450;44.518;7.466;2023-04-03T17:06:23;17.50;44.70
49549;DHT22;35450;44.518;7.466;2023-04-03T17:09:27;17.40;46.10
49549;DHT22;35450;44.518;7.466;2023-04-03T17:12:31;17.20;45.90
49549;DHT22;35450;44.518;7.466;2023-04-03T17:15:35;17.00;47.00
49549;DHT22;35450;44.518;7.466;2023-04-03T17:18:40;16.90;48.20
49549;DHT22;35450;44.518;7.466;2023-04-03T17:21:45;16.60;49.30
49549;DHT22;35450;44.518;7.466;2023-04-03T17:24:49;16.20;51.00
49549;DHT22;35450;44.518;7.466;2023-04-03T17:27:54;15.90;52.60
49549;DHT22;35450;44.518;7.466;2023-04-03T17:31:00;15.20;54.50
49549;DHT22;35450;44.518;7.466;2023-04-03T17:34:04;14.70;55.80
49549;DHT22;35450;44.518;7.466;2023-04-03T17:37:09;14.40;57.30
49549;DHT22;35450;44.518;7.466;2023-04-03T17:40:13;14.30;57.70
49549;DHT22;35450;44.518;7.466;2023-04-03T17:43:19;14.10;58.10
49549;DHT22;35450;44.518;7.466;2023-04-03T17:46:24;14.10;59.00
49549;DHT22;35450;44.518;7.466;2023-04-03T17:49:28;14.00;60.00
49549;DHT22;35450;44.518;7.466;2023-04-03T17:52:32;13.90;60.80
49549;DHT22;35450;44.518;7.466;2023-04-03T17:55:37;13.70;61.90
49549;DHT22;35450;44.518;7.466;2023-04-03T17:58:42;13.70;62.90
49549;DHT22;35450;44.518;7.466;2023-04-03T18:01:47;13.40;64.00
49549;DHT22;35450;44.518;7.466;2023-04-03T18:04:52;13.20;64.60
49549;DHT22;35450;44.518;7.466;2023-04-03T18:07:56;13.10;64.60
49549;DHT22;35450;44.518;7.466;2023-04-03T18:11:00;13.00;64.20
49549;DHT22;35450;44.518;7.466;2023-04-03T18:14:05;13.00;64.00
49549;DHT22;35450;44.518;7.466;2023-04-03T18:17:10;13.00;63.30
49549;DHT22;35450;44.518;7.466;2023-04-03T18:20:14;13.10;63.30
49549;DHT22;35450;44.518;7.466;2023-04-03T18:23:19;13.10;62.30
49549;DHT22;35450;44.518;7.466;2023-04-03T18:26:25;13.00;61.70
49549;DHT22;35450;44.518;7.466;2023-04-03T18:29:33;12.90;61.40
49549;DHT22;35450;44.518;7.466;2023-04-03T18:32:37;12.70;62.90
49549;DHT22;35450;44.518;7.466;2023-04-03T18:35:41;12.50;63.50
49549;DHT22;35450;44.518;7.466;2023-04-03T18:38:45;12.40;64.00
49549;DHT22;35450;44.518;7.466;2023-04-03T18:41:49;12.30;65.60
49549;DHT22;35450;44.518;7.466;2023-04-03T18:44:55;12.30;66.20
49549;DHT22;35450;44.518;7.466;2023-04-03T18:48:00;12.20;66.90
49549;DHT22;35450;44.518;7.466;2023-04-03T18:51:04;12.00;67.60
49549;DHT22;35450;44.518;7.466;2023-04-03T18:54:09;12.10;67.40
49549;DHT22;35450;44.518;7.466;2023-04-03T18:57:12;11.90;67.30
49549;DHT22;35450;44.518;7.466;2023-04-03T19:00:17;11.80;67.80
49549;DHT22;35450;44.518;7.466;2023-04-03T19:03:21;11.80;68.20
49549;DHT22;35450;44.518;7.466;2023-04-03T19:06:25;11.90;67.90
49549;DHT22;35450;44.518;7.466;2023-04-03T19:09:29;11.90;67.30
49549;DHT22;35450;44.518;7.466;2023-04-03T19:12:33;12.10;67.40
49549;DHT22;35450;44.518;7.466;2023-04-03T19:15:37;12.20;67.50
49549;DHT22;35450;44.518;7.466;2023-04-03T19:18:41;12.40;68.60
49549;DHT22;35450;44.518;7.466;2023-04-03T19:21:45;12.20;70.10
49549;DHT22;35450;44.518;7.466;2023-04-03T19:24:49;12.20;70.10
49549;DHT22;35450;44.518;7.466;2023-04-03T19:27:54;12.00;67.80
49549;DHT22;35450;44.518;7.466;2023-04-03T19:30:58;11.90;67.40
49549;DHT22;35450;44.518;7.466;2023-04-03T19:34:03;12.00;66.80
49549;DHT22;35450;44.518;7.466;2023-04-03T19:37:07;12.00;67.50
49549;DHT22;35450;44.518;7.466;2023-04-03T19:40:11;12.20;68.20
49549;DHT22;35450;44.518;7.466;2023-04-03T19:43:16;12.20;66.90
49549;DHT22;35450;44.518;7.466;2023-04-03T19:46:24;12.50;65.80
49549;DHT22;35450;44.518;7.466;2023-04-03T19:49:29;12.80;65.50
49549;DHT22;35450;44.518;7.466;2023-04-03T19:52:33;13.00;62.90
49549;DHT22;35450;44.518;7.466;2023-04-03T19:55:37;13.00;63.10
49549;DHT22;35450;44.518;7.466;2023-04-03T19:58:42;13.20;65.10
49549;DHT22;35450;44.518;7.466;2023-04-03T20:01:46;13.20;66.40
49549;DHT22;35450;44.518;7.466;2023-04-03T20:04:49;13.30;61.30
49549;DHT22;35450;44.518;7.466;2023-04-03T20:07:53;13.40;62.00
49549;DHT22;35450;44.518;7.466;2023-04-03T20:10:58;13.20;64.10
49549;DHT22;35450;44.518;7.466;2023-04-03T20:14:02;13.00;62.40
49549;DHT22;35450;44.518;7.466;2023-04-03T20:17:07;13.00;64.30
49549;DHT22;35450;44.518;7.466;2023-04-03T20:20:11;12.90;65.80
49549;DHT22;35450;44.518;7.466;2023-04-03T20:23:16;12.80;64.30
49549;DHT22;35450;44.518;7.466;2023-04-03T20:26:23;12.70;64.80
49549;DHT22;35450;44.518;7.466;2023-04-03T20:29:28;12.70;64.70
49549;DHT22;35450;44.518;7.466;2023-04-03T20:32:32;12.60;63.70
49549;DHT22;35450;44.518;7.466;2023-04-03T20:35:36;12.70;63.50
49549;DHT22;35450;44.518;7.466;2023-04-03T20:38:40;12.70;62.40
49549;DHT22;35450;44.518;7.466;2023-04-03T20:41:44;12.90;62.10
49549;DHT22;35450;44.518;7.466;2023-04-03T20:44:48;12.90;61.90
49549;DHT22;35450;44.518;7.466;2023-04-03T20:47:52;13.00;59.80
49549;DHT22;35450;44.518;7.466;2023-04-03T20:50:57;13.10;61.40
49549;DHT22;35450;44.518;7.466;2023-04-03T20:54:01;13.10;62.80
49549;DHT22;35450;44.518;7.466;2023-04-03T20:57:05;13.10;62.90
49549;DHT22;35450;44.518;7.466;2023-04-03T21:00:10;13.20;63.70
49549;DHT22;35450;44.518;7.466;2023-04-03T21:03:16;13.10;64.20